Time;durP1;ratioP1;P1;durP2;ratioP2;P2;SDS_P1;SDS_P2;PMS_P1;PMS_P2;Temp;Humidity;BMP_temperature;BMP_pressure;BME280_temperature;BME280_humidity;BME280_pressure;Samples;Min_cycle;Max_cycle;Signal;HPM_P1;HPM_P2
2023/01/18 00:01:13;;;;;;;30.13;14.25;;;1.80;93.00;;;;;;5070502;28;20028;-73
2023/01/18 00:03:39;;;;;;;31.48;14.27;;;1.90;91.70;;;;;;5070489;28;20035;-74
2023/01/18 00:06:06;;;;;;;29.08;14.93;;;1.70;92.10;;;;;;5069952;28;20363;-73
2023/01/18 00:08:34;;;;;;;35.78;15.25;;;1.70;94.20;;;;;;5070444;28;20496;-74
2023/01/18 00:11:11;;;;;;;40.25;16.80;;;1.70;93.50;;;;;;5069779;28;20094;-74
2023/01/18 00:13:37;;;;;;;32.97;16.58;;;1.80;93.20;;;;;;5070276;28;20359;-74
2023/01/18 00:16:18;;;;;;;34.65;15.25;;;1.80;92.60;;;;;;5069663;28;20101;-74
2023/01/18 00:18:51;;;;;;;44.33;17.23;;;1.80;92.90;;;;;;5070309;28;20106;-74
2023/01/18 00:21:16;;;;;;;37.83;17.33;;;1.80;93.10;;;;;;5070732;28;20036;-73
2023/01/18 00:23:42;;;;;;;37.28;17.17;;;1.80;93.20;;;;;;5069790;28;20413;-74
2023/01/18 00:26:09;;;;;;;43.63;18.02;;;1.80;92.90;;;;;;5069416;28;20119;-74
2023/01/18 00:28:36;;;;;;;41.45;19.50;;;1.70;93.70;;;;;;5070253;28;20025;-74
2023/01/18 00:31:09;;;;;;;39.33;19.13;;;1.60;94.80;;;;;;5071776;28;20116;-74
2023/01/18 00:33:34;;;;;;;43.50;19.45;;;1.60;96.30;;;;;;5073691;28;20100;-74
2023/01/18 00:36:02;;;;;;;43.35;20.05;;;1.60;96.80;;;;;;5073131;28;20115;-74
2023/01/18 00:38:28;;;;;;;46.08;20.42;;;1.50;96.80;;;;;;5073581;28;20426;-73
2023/01/18 00:40:54;;;;;;;41.38;20.30;;;1.50;97.00;;;;;;5073767;28;20056;-75
2023/01/18 00:43:38;;;;;;;47.47;20.80;;;1.50;97.10;;;;;;5073750;28;20311;-74
2023/01/18 00:46:15;;;;;;;44.67;20.93;;;1.50;96.90;;;;;;5072915;28;20033;-74
2023/01/18 00:48:41;;;;;;;44.35;20.42;;;1.50;97.20;;;;;;5073709;28;20024;-73
2023/01/18 00:51:12;;;;;;;45.95;22.08;;;1.50;97.50;;;;;;5073448;28;20105;-74
2023/01/18 00:53:38;;;;;;;40.53;19.27;;;1.50;97.50;;;;;;5073337;28;20025;-75
2023/01/18 00:56:05;;;;;;;46.58;20.17;;;1.50;97.30;;;;;;5072753;28;20548;-73
2023/01/18 00:58:31;;;;;;;44.13;20.40;;;1.50;97.50;;;;;;5073408;28;20189;-74
2023/01/18 01:00:57;;;;;;;51.95;22.02;;;1.40;97.70;;;;;;5071027;28;20481;-73
2023/01/18 01:03:22;;;;;;;46.38;20.88;;;1.50;97.30;;;;;;5072422;28;20501;-74
2023/01/18 01:08:32;;;;;;;47.83;22.08;;;1.50;96.40;;;;;;5073266;28;20405;-74
2023/01/18 01:11:07;;;;;;;47.10;20.75;;;1.50;96.20;;;;;;5072861;28;20115;-74
2023/01/18 01:27:13;;;;;;;48.07;20.43;;;1.50;95.00;;;;;;5073350;28;20039;-73
2023/01/18 01:29:38;;;;;;;44.05;20.73;;;1.50;94.60;;;;;;5073983;28;20020;-75
2023/01/18 01:32:04;;;;;;;41.30;19.88;;;1.50;95.00;;;;;;5073822;28;20359;-73
2023/01/18 01:34:30;;;;;;;46.30;20.10;;;1.50;94.30;;;;;;5073830;28;20013;-73
2023/01/18 01:36:56;;;;;;;41.25;20.70;;;1.50;94.40;;;;;;5073106;28;20036;-73
2023/01/18 01:39:22;;;;;;;59.33;22.00;;;1.50;94.40;;;;;;5074211;28;20103;-73
2023/01/18 01:41:48;;;;;;;46.47;22.42;;;1.50;94.50;;;;;;5072866;28;20086;-72
2023/01/18 01:44:16;;;;;;;43.25;21.23;;;1.50;94.00;;;;;;5073811;28;20024;-73
2023/01/18 01:46:55;;;;;;;42.47;20.13;;;1.50;94.20;;;;;;5073053;28;20040;-73
2023/01/18 01:49:27;;;;;;;45.83;21.83;;;1.50;94.10;;;;;;5074011;28;20381;-73
2023/01/18 01:52:18;;;;;;;40.72;21.17;;;1.50;94.50;;;;;;5074337;28;20108;-72
2023/01/18 01:54:56;;;;;;;42.47;20.95;;;1.40;95.10;;;;;;5062046;28;20062;-74
2023/01/18 01:57:29;;;;;;;47.70;22.25;;;1.40;95.10;;;;;;5072634;28;20021;-73
2023/01/18 02:00:00;;;;;;;43.08;20.88;;;1.40;95.40;;;;;;5073245;28;20086;-73
2023/01/18 02:02:26;;;;;;;46.58;22.35;;;1.30;95.40;;;;;;5073649;28;20032;-72
2023/01/18 02:04:54;;;;;;;42.78;22.17;;;1.40;95.60;;;;;;5073003;28;20051;-75
2023/01/18 02:07:21;;;;;;;48.15;22.42;;;1.40;95.10;;;;;;5072264;28;20374;-73
2023/01/18 02:09:47;;;;;;;41.05;22.10;;;1.40;95.00;;;;;;5072876;28;20028;-74
2023/01/18 02:12:13;;;;;;;44.92;22.00;;;1.40;94.70;;;;;;5072824;28;20155;-73
2023/01/18 02:14:39;;;;;;;50.20;22.98;;;1.40;95.30;;;;;;5072373;28;20078;-73
2023/01/18 02:17:31;;;;;;;50.50;23.77;;;1.40;94.60;;;;;;5070665;28;20428;-74
2023/01/18 02:20:30;;;;;;;47.83;23.30;;;1.30;96.10;;;;;;5072982;28;20025;-73
2023/01/18 02:23:33;;;;;;;53.08;23.52;;;1.30;96.50;;;;;;5054822;28;20067;-74
2023/01/18 02:26:40;;;;;;;49.95;24.15;;;1.30;96.60;;;;;;5072048;28;20021;-74
2023/01/18 02:29:11;;;;;;;53.55;24.48;;;1.20;96.80;;;;;;5072301;28;20029;-74
2023/01/18 02:31:59;;;;;;;51.15;24.08;;;1.20;97.20;;;;;;5072553;28;20070;-73
2023/01/18 02:34:45;;;;;;;55.97;25.60;;;1.30;96.10;;;;;;5072577;28;20438;-74
2023/01/18 02:37:17;;;;;;;49.80;24.80;;;1.20;97.10;;;;;;5071898;28;20099;-73
2023/01/18 02:40:07;;;;;;;53.13;24.10;;;1.10;98.00;;;;;;5072328;28;20113;-73
2023/01/18 02:48:23;;;;;;;58.22;25.48;;;1.20;98.00;;;;;;5072210;28;20047;-73
2023/01/18 02:50:49;;;;;;;52.85;25.80;;;1.20;96.90;;;;;;5072115;28;20020;-73
2023/01/18 02:53:15;;;;;;;56.60;25.20;;;1.20;97.50;;;;;;5071974;28;20025;-74
2023/01/18 02:55:47;;;;;;;57.33;25.73;;;1.10;97.40;;;;;;5071496;28;20056;-73
2023/01/18 02:58:23;;;;;;;59.80;25.75;;;1.10;98.20;;;;;;5072112;28;20028;-73
2023/01/18 03:00:55;;;;;;;61.45;27.25;;;1.20;98.40;;;;;;5072021;28;20035;-72
2023/01/18 03:03:22;;;;;;;50.67;25.10;;;1.10;97.30;;;;;;5072054;28;20036;-74
2023/01/18 03:05:50;;;;;;;57.20;25.83;;;1.00;98.00;;;;;;5071222;28;20028;-74
2023/01/18 03:08:25;;;;;;;53.45;24.80;;;1.10;98.60;;;;;;5071931;28;20025;-74
2023/01/18 03:10:56;;;;;;;;;;;1.10;98.10;;;;;;5072239;28;20024;-74
2023/01/18 03:13:35;;;;;;;49.05;25.35;;;1.10;97.80;;;;;;5071932;28;19911;-73
2023/01/18 03:16:08;;;;;;;51.25;25.02;;;1.00;98.40;;;;;;5071162;28;20021;-74
2023/01/18 03:18:59;;;;;;;50.90;24.73;;;1.10;98.40;;;;;;5071841;28;20024;-73
2023/01/18 03:21:47;;;;;;;60.08;25.80;;;1.10;97.00;;;;;;5071644;28;20028;-72
2023/01/18 03:24:14;;;;;;;45.80;24.50;;;1.10;97.60;;;;;;5071943;28;20417;-75
2023/01/18 03:26:45;;;;;;;48.25;25.05;;;1.00;97.90;;;;;;5071371;28;20029;-73
2023/01/18 03:35:13;;;;;;;47.47;24.10;;;1.10;97.50;;;;;;5072055;28;20043;-73
2023/01/18 03:37:44;;;;;;;58.25;26.23;;;1.10;98.00;;;;;;5069652;28;20028;-72
2023/01/18 03:40:29;;;;;;;57.22;26.98;;;1.10;97.60;;;;;;5071163;28;20558;-73
2023/01/18 03:43:15;;;;;;;54.30;27.05;;;1.00;98.60;;;;;;5071852;28;20017;-73
2023/01/18 03:45:46;;;;;;;58.65;28.00;;;1.00;98.50;;;;;;5070672;28;20434;-73
2023/01/18 03:48:13;;;;;;;54.50;26.98;;;1.00;99.00;;;;;;5071640;28;20104;-73
2023/01/18 03:50:50;;;;;;;52.92;26.45;;;1.00;98.90;;;;;;5071195;28;20024;-74
2023/01/18 03:53:27;;;;;;;53.80;25.73;;;1.10;98.70;;;;;;5071516;28;20106;-73
2023/01/18 03:55:57;;;;;;;55.55;26.60;;;1.00;98.20;;;;;;5070829;28;20029;-73
2023/01/18 03:58:32;;;;;;;53.03;25.52;;;1.00;98.90;;;;;;5071921;28;20154;-73
2023/01/18 04:00:57;;;;;;;;;;;1.00;98.40;;;;;;5071792;28;20096;-73
2023/01/18 04:03:23;;;;;;;53.85;26.05;;;1.00;98.40;;;;;;5071455;28;20008;-72
2023/01/18 04:05:49;;;;;;;62.42;25.65;;;1.00;98.40;;;;;;5072384;28;20063;-73
2023/01/18 04:08:15;;;;;;;55.78;26.23;;;1.10;99.00;;;;;;5074850;28;20032;-74
2023/01/18 04:10:40;;;;;;;50.47;25.05;;;1.10;97.50;;;;;;5074971;28;20020;-73
2023/01/18 04:13:06;;;;;;;57.25;24.02;;;1.10;97.10;;;;;;5074985;28;20021;-74
2023/01/18 04:15:31;;;;;;;53.78;23.15;;;1.30;97.20;;;;;;5056439;28;20124;-73
2023/01/18 04:17:57;;;;;;;43.88;22.90;;;1.10;96.60;;;;;;5074892;28;20577;-74
2023/01/18 04:20:23;;;;;;;54.30;23.30;;;1.20;96.50;;;;;;5075619;28;20029;-73
2023/01/18 04:22:52;;;;;;;42.35;21.70;;;1.20;96.00;;;;;;5075072;28;20424;-73
2023/01/18 04:25:18;;;;;;;49.15;23.27;;;1.20;95.60;;;;;;5074404;28;20039;-72
2023/01/18 04:27:44;;;;;;;45.72;22.23;;;1.20;95.80;;;;;;5074382;28;20474;-73
2023/01/18 04:30:10;;;;;;;44.03;21.80;;;1.20;96.10;;;;;;5074636;28;20082;-74
2023/01/18 04:32:35;;;;;;;47.33;23.05;;;1.20;95.40;;;;;;5074500;28;20033;-73
2023/01/18 04:35:01;;;;;;;48.10;22.00;;;1.20;94.80;;;;;;5076092;28;20025;-75
2023/01/18 04:37:32;;;;;;;41.40;20.55;;;1.20;94.90;;;;;;5074332;28;20162;-74
2023/01/18 04:39:58;;;;;;;48.33;23.00;;;1.20;95.80;;;;;;5074893;28;20037;-71
2023/01/18 04:42:24;;;;;;;48.22;21.35;;;1.20;94.90;;;;;;5074645;28;20105;-73
2023/01/18 04:44:51;;;;;;;42.55;20.73;;;1.20;95.60;;;;;;5074421;28;20020;-74
2023/01/18 04:47:16;;;;;;;39.70;21.05;;;1.10;95.10;;;;;;5074185;28;20017;-73
2023/01/18 04:49:42;;;;;;;44.85;20.45;;;1.20;95.60;;;;;;5074805;28;20020;-73
2023/01/18 04:52:08;;;;;;;43.05;20.60;;;1.10;95.60;;;;;;5074280;28;20016;-73
2023/01/18 04:54:34;;;;;;;47.72;21.10;;;1.20;96.40;;;;;;5074853;28;20016;-78
2023/01/18 04:56:59;;;;;;;46.45;21.10;;;1.20;96.50;;;;;;5076847;28;20538;-76
2023/01/18 04:59:25;;;;;;;41.33;21.02;;;1.20;96.40;;;;;;5074674;28;20107;-77
2023/01/18 05:01:50;;;;;;;43.03;21.15;;;1.20;96.00;;;;;;5074980;28;20017;-77
2023/01/18 05:04:16;;;;;;;40.92;19.65;;;1.20;95.10;;;;;;5076058;28;20082;-78
2023/01/18 05:06:41;;;;;;;45.05;21.00;;;1.30;93.00;;;;;;5074542;28;20024;-78
2023/01/18 05:09:10;;;;;;;40.63;20.23;;;1.20;93.20;;;;;;5074643;28;20016;-74
2023/01/18 05:11:35;;;;;;;41.33;20.80;;;1.20;94.30;;;;;;5074487;28;20020;-74
2023/01/18 05:14:01;;;;;;;37.25;18.80;;;1.10;94.20;;;;;;5074250;28;20494;-73
2023/01/18 05:16:27;;;;;;;45.60;20.77;;;1.10;94.60;;;;;;5073371;28;20124;-71
2023/01/18 05:18:52;;;;;;;41.75;21.30;;;1.10;96.10;;;;;;5073980;28;20020;-72
2023/01/18 05:21:18;;;;;;;40.67;20.95;;;1.10;95.00;;;;;;5074052;28;20089;-73
2023/01/18 05:23:43;;;;;;;43.78;20.65;;;1.10;96.50;;;;;;5073914;28;20031;-72
2023/01/18 05:26:15;;;;;;;38.03;20.48;;;1.10;96.00;;;;;;5073076;28;20028;-71
2023/01/18 05:28:42;;;;;;;34.33;19.17;;;1.00;95.80;;;;;;5073716;28;20024;-72
2023/01/18 05:31:08;;;;;;;48.25;22.00;;;1.00;96.80;;;;;;5075157;28;20031;-73
2023/01/18 05:33:33;;;;;;;40.03;21.35;;;1.00;96.90;;;;;;5075789;28;20024;-73
2023/01/18 05:35:59;;;;;;;46.85;22.83;;;1.00;97.80;;;;;;5075454;28;20394;-73
2023/01/18 05:38:24;;;;;;;47.67;22.95;;;1.00;96.70;;;;;;5076017;28;20040;-73
2023/01/18 05:40:52;;;;;;;41.88;22.27;;;1.00;97.30;;;;;;5073947;28;20025;-73
2023/01/18 05:43:20;;;;;;;51.20;23.35;;;1.00;97.80;;;;;;5073625;28;20024;-73
2023/01/18 05:45:45;;;;;;;47.97;25.13;;;1.00;97.90;;;;;;5074937;28;20029;-76
2023/01/18 05:48:11;;;;;;;55.30;25.23;;;1.00;96.50;;;;;;5072017;28;20355;-77
2023/01/18 05:50:42;;;;;;;49.97;25.25;;;1.00;97.10;;;;;;5073370;28;20476;-78
2023/01/18 05:53:08;;;;;;;52.88;25.55;;;1.00;96.50;;;;;;5072577;28;20024;-78
2023/01/18 05:55:34;;;;;;;57.00;25.92;;;0.90;96.50;;;;;;5075819;28;20406;-79
2023/01/18 05:57:59;;;;;;;54.50;25.65;;;0.90;97.20;;;;;;5075812;28;20265;-79
2023/01/18 06:00:25;;;;;;;48.58;25.73;;;0.90;97.10;;;;;;5074355;28;20033;-72
2023/01/18 06:02:52;;;;;;;53.35;27.10;;;0.90;97.30;;;;;;5072793;28;20035;-73
2023/01/18 06:05:18;;;;;;;63.55;26.88;;;0.90;97.50;;;;;;5072796;28;20032;-73
2023/01/18 06:07:44;;;;;;;46.50;25.73;;;1.00;97.50;;;;;;5072058;28;20028;-74
2023/01/18 06:10:10;;;;;;;49.55;25.55;;;1.00;96.00;;;;;;5073252;28;20448;-73
2023/01/18 06:12:35;;;;;;;50.25;25.98;;;0.90;96.80;;;;;;5074372;28;20031;-73
2023/01/18 06:15:00;;;;;;;53.33;26.45;;;0.90;96.60;;;;;;5074791;28;20071;-72
2023/01/18 06:17:27;;;;;;;54.00;25.92;;;1.00;96.40;;;;;;5074763;28;20032;-73
2023/01/18 06:19:52;;;;;;;52.33;25.80;;;0.90;96.50;;;;;;5075067;28;20505;-73
2023/01/18 06:22:18;;;;;;;50.67;26.50;;;0.90;96.50;;;;;;5073337;28;20033;-73
2023/01/18 06:24:43;;;;;;;55.90;28.02;;;0.80;97.40;;;;;;5073658;28;20025;-72
2023/01/18 06:27:09;;;;;;;58.28;26.23;;;0.80;98.80;;;;;;5072548;28;20505;-74
2023/01/18 06:29:34;;;;;;;59.58;28.70;;;0.80;97.50;;;;;;5066937;28;20021;-75
2023/01/18 06:32:00;;;;;;;52.90;25.92;;;0.70;98.10;;;;;;5071714;28;20206;-74
2023/01/18 06:34:26;;;;;;;58.53;26.95;;;0.60;99.10;;;;;;5071919;28;20048;-74
2023/01/18 06:36:51;;;;;;;51.67;27.17;;;0.70;99.90;;;;;;5071545;28;20025;-73
2023/01/18 06:39:17;;;;;;;49.85;25.58;;;0.60;99.60;;;;;;5067366;28;20033;-74
2023/01/18 06:41:43;;;;;;;58.83;27.40;;;0.60;99.90;;;;;;5069516;28;20032;-77
2023/01/18 06:44:08;;;;;;;67.32;27.77;;;0.70;98.50;;;;;;5072008;28;20063;-73
2023/01/18 06:46:34;;;;;;;62.70;28.67;;;0.60;98.80;;;;;;5071196;28;20028;-72
2023/01/18 06:48:59;;;;;;;60.75;27.52;;;0.60;98.80;;;;;;5072335;28;20024;-76
2023/01/18 06:51:25;;;;;;;62.20;28.73;;;0.70;99.90;;;;;;5072010;28;20032;-74
2023/01/18 06:53:51;;;;;;;60.17;29.17;;;0.60;99.90;;;;;;5072379;28;20024;-72
2023/01/18 06:56:16;;;;;;;62.08;28.50;;;0.60;99.90;;;;;;5071332;28;20057;-74
2023/01/18 06:58:43;;;;;;;52.00;26.80;;;0.70;99.50;;;;;;5072127;28;20528;-73
2023/01/18 07:01:09;;;;;;;58.72;28.67;;;0.80;98.20;;;;;;5072414;28;20028;-74
2023/01/18 07:03:35;;;;;;;66.25;31.25;;;0.70;98.40;;;;;;5071762;28;20037;-75
2023/01/18 07:06:02;;;;;;;62.25;30.65;;;0.60;98.60;;;;;;5071361;28;20024;-73
2023/01/18 07:08:29;;;;;;;67.18;30.15;;;0.50;99.60;;;;;;5073202;28;20111;-76
2023/01/18 07:10:56;;;;;;;68.05;31.45;;;0.60;99.90;;;;;;5055257;28;20422;-75
2023/01/18 07:13:22;;;;;;;66.15;31.10;;;0.70;99.70;;;;;;5072109;28;20020;-75
2023/01/18 07:15:53;;;;;;;66.18;31.75;;;0.60;99.40;;;;;;5071973;28;20070;-74
2023/01/18 07:18:19;;;;;;;63.80;29.73;;;0.50;99.80;;;;;;5071965;28;20029;-73
2023/01/18 07:20:45;;;;;;;73.60;33.72;;;0.60;99.90;;;;;;5071108;28;20041;-72
2023/01/18 07:23:10;;;;;;;72.15;31.08;;;0.50;99.90;;;;;;5071799;28;20064;-71
2023/01/18 07:25:36;;;;;;;58.50;30.08;;;0.50;99.90;;;;;;5071535;28;20063;-77
2023/01/18 07:28:03;;;;;;;63.30;30.95;;;0.50;99.90;;;;;;5076937;28;20024;-77
2023/01/18 07:30:29;;;;;;;63.05;29.08;;;0.60;99.90;;;;;;5055445;28;20031;-74
2023/01/18 07:32:54;;;;;;;65.60;29.73;;;0.60;99.60;;;;;;5071580;28;20385;-74
2023/01/18 07:35:21;;;;;;;59.08;27.55;;;0.60;99.20;;;;;;5053489;28;20024;-75
2023/01/18 07:37:48;;;;;;;59.30;28.65;;;0.70;99.30;;;;;;5070967;28;20032;-73
2023/01/18 07:40:14;;;;;;;63.13;30.75;;;0.70;98.70;;;;;;5072141;28;20055;-73
2023/01/18 07:42:40;;;;;;;60.42;28.83;;;0.70;99.40;;;;;;5075706;28;20458;-74
2023/01/18 07:45:07;;;;;;;61.80;28.60;;;0.80;98.50;;;;;;5075299;28;20036;-73
2023/01/18 07:47:34;;;;;;;53.58;26.92;;;0.80;97.90;;;;;;5075002;28;20024;-73
2023/01/18 07:50:00;;;;;;;56.20;29.35;;;0.70;98.00;;;;;;5075605;28;20520;-72
2023/01/18 07:52:25;;;;;;;60.72;28.75;;;0.70;98.40;;;;;;5075608;28;20032;-75
2023/01/18 07:54:51;;;;;;;65.60;29.27;;;0.70;97.80;;;;;;5075877;28;20013;-76
2023/01/18 07:57:17;;;;;;;56.80;28.90;;;0.70;98.80;;;;;;5075512;28;20028;-74
2023/01/18 07:59:42;;;;;;;61.90;29.73;;;0.70;98.00;;;;;;5076666;28;20082;-76
2023/01/18 08:02:11;;;;;;;59.58;28.83;;;0.70;98.30;;;;;;5078194;28;20021;-75
2023/01/18 08:04:38;;;;;;;59.58;29.65;;;0.80;97.00;;;;;;5079144;28;20028;-76
2023/01/18 08:07:04;;;;;;;63.80;29.75;;;0.70;96.70;;;;;;5077719;28;20028;-77
2023/01/18 08:09:29;;;;;;;65.40;29.63;;;0.70;98.00;;;;;;5058473;28;20020;-76
2023/01/18 08:11:55;;;;;;;59.03;28.33;;;0.80;97.90;;;;;;5075477;28;20024;-76
2023/01/18 08:14:20;;;;;;;55.50;27.70;;;0.80;97.00;;;;;;5075452;28;20420;-73
2023/01/18 08:16:46;;;;;;;59.47;27.88;;;0.80;97.90;;;;;;5074277;28;20465;-71
2023/01/18 08:19:11;;;;;;;59.38;27.90;;;0.80;97.10;;;;;;5074843;28;20029;-73
2023/01/18 08:21:37;;;;;;;60.42;28.88;;;0.80;96.90;;;;;;5074767;28;20070;-72
2023/01/18 08:24:02;;;;;;;55.47;28.13;;;0.80;95.70;;;;;;5074707;28;20386;-73
2023/01/18 08:26:28;;;;;;;64.18;28.27;;;0.90;97.20;;;;;;5074248;28;20024;-72
2023/01/18 08:28:55;;;;;;;64.20;28.27;;;0.90;96.20;;;;;;5074972;28;20448;-72
2023/01/18 08:31:20;;;;;;;61.10;29.20;;;1.10;96.20;;;;;;5074904;28;20433;-72
2023/01/18 08:33:47;;;;;;;61.10;28.48;;;1.10;96.30;;;;;;5074768;28;20020;-72
2023/01/18 08:36:19;;;;;;;61.55;29.98;;;1.00;94.80;;;;;;5074392;28;20481;-72
2023/01/18 08:38:49;;;;;;;56.10;28.45;;;1.10;95.20;;;;;;5074951;28;20029;-72
2023/01/18 08:41:15;;;;;;;61.08;27.98;;;1.20;94.60;;;;;;5074822;28;20025;-72
2023/01/18 08:43:41;;;;;;;56.92;26.92;;;1.30;94.70;;;;;;5074640;28;20085;-72
2023/01/18 08:46:07;;;;;;;53.70;27.25;;;1.30;93.70;;;;;;5074173;28;20028;-72
2023/01/18 08:48:33;;;;;;;56.25;26.10;;;1.50;92.20;;;;;;5074608;28;20024;-73
2023/01/18 08:51:02;;;;;;;62.88;26.60;;;1.60;91.20;;;;;;5073956;28;20029;-73
2023/01/18 08:53:29;;;;;;;50.20;26.30;;;1.70;90.60;;;;;;5074899;28;20031;-74
2023/01/18 08:55:55;;;;;;;58.42;27.13;;;1.90;81.90;;;;;;5074049;28;20028;-72
2023/01/18 08:58:21;;;;;;;47.53;24.95;;;2.00;83.20;;;;;;5074628;28;20024;-72
2023/01/18 09:00:49;;;;;;;51.75;25.42;;;2.30;76.70;;;;;;5074319;28;20031;-72
2023/01/18 09:03:18;;;;;;;52.33;25.75;;;2.40;70.80;;;;;;5074388;28;20529;-74
2023/01/18 09:05:44;;;;;;;48.85;24.00;;;2.60;64.50;;;;;;5076451;28;20025;-74
2023/01/18 09:08:10;;;;;;;46.15;23.55;;;2.80;56.40;;;;;;5074023;28;20483;-75
2023/01/18 09:10:37;;;;;;;42.50;21.85;;;3.00;38.80;;;;;;5071019;28;20169;-73
2023/01/18 09:13:03;;;;;;;49.80;23.65;;;3.30;33.40;;;;;;5073832;28;20017;-73
2023/01/18 09:15:29;;;;;;;45.70;21.75;;;3.40;30.00;;;;;;5074137;28;20031;-72
2023/01/18 09:17:54;;;;;;;46.33;21.90;;;3.50;11.40;;;;;;5075568;28;20117;-73
2023/01/18 09:20:20;;;;;;;47.88;22.83;;;3.50;29.10;;;;;;5075310;28;20028;-72
2023/01/18 09:22:48;;;;;;;45.13;22.77;;;3.60;20.30;;;;;;5073966;28;20024;-72
2023/01/18 09:25:16;;;;;;;50.55;22.08;;;3.70;7.80;;;;;;5074605;28;20478;-72
2023/01/18 09:27:42;;;;;;;41.88;22.60;;;3.70;15.30;;;;;;5074006;28;20436;-77
2023/01/18 09:30:08;;;;;;;39.35;21.42;;;3.90;1.00;;;;;;5073836;28;20024;-75
2023/01/18 09:32:34;;;;;;;43.83;20.85;;;3.90;1.00;;;;;;5073531;28;20024;-74
2023/01/18 09:34:59;;;;;;;43.03;19.52;;;4.20;5.70;;;;;;5073355;28;20050;-72
2023/01/18 09:37:25;;;;;;;49.78;23.77;;;4.60;1.00;;;;;;5072712;28;20063;-73
2023/01/18 09:39:50;;;;;;;41.28;21.20;;;4.70;1.00;;;;;;5073394;28;20075;-75
2023/01/18 09:42:19;;;;;;;43.83;21.65;;;4.80;1.00;;;;;;5073297;28;20040;-73
2023/01/18 09:44:49;;;;;;;51.58;24.80;;;4.80;1.00;;;;;;5073180;28;20024;-72
2023/01/18 09:47:27;;;;;;;60.40;26.85;;;4.70;1.00;;;;;;5072482;28;20032;-73
2023/01/18 09:50:12;;;;;;;45.15;23.48;;;4.40;1.00;;;;;;5073407;28;20021;-71
2023/01/18 09:52:53;;;;;;;41.15;22.00;;;4.10;1.00;;;;;;5072010;28;20141;-72
2023/01/18 09:55:49;;;;;;;47.65;23.27;;;4.00;1.00;;;;;;5072357;28;20040;-72
2023/01/18 09:58:40;;;;;;;44.13;21.95;;;4.00;11.10;;;;;;5073282;28;20104;-72
2023/01/18 10:01:13;;;;;;;38.47;21.30;;;4.00;1.00;;;;;;5073236;28;20363;-72
2023/01/18 10:04:02;;;;;;;42.65;20.92;;;3.80;2.00;;;;;;5072416;28;20025;-72
2023/01/18 10:06:46;;;;;;;44.38;21.63;;;3.90;9.00;;;;;;5072768;28;20028;-75
2023/01/18 10:09:20;;;;;;;43.28;20.58;;;4.00;5.80;;;;;;5073874;28;20024;-76
2023/01/18 10:11:58;;;;;;;51.90;23.38;;;4.10;3.20;;;;;;5073223;28;20024;-76
2023/01/18 10:14:34;;;;;;;40.03;22.20;;;4.10;1.00;;;;;;5073844;28;20021;-76
2023/01/18 10:17:03;;;;;;;38.25;20.15;;;4.00;1.00;;;;;;5072746;28;20078;-73
2023/01/18 10:19:31;;;;;;;41.35;20.60;;;4.00;1.00;;;;;;5073081;28;20025;-73
2023/01/18 10:22:30;;;;;;;51.92;27.15;;;4.00;1.00;;;;;;5072554;28;20107;-73
2023/01/18 10:25:13;;;;;;;51.25;24.35;;;4.10;1.00;;;;;;5072942;28;20032;-73
2023/01/18 10:27:59;;;;;;;38.90;20.17;;;4.20;1.00;;;;;;5072455;28;20036;-73
2023/01/18 10:30:30;;;;;;;40.00;20.42;;;4.20;1.00;;;;;;5072966;28;20031;-73
2023/01/18 10:33:01;;;;;;;49.15;21.75;;;4.20;1.00;;;;;;5072995;28;20099;-73
2023/01/18 10:35:34;;;;;;;44.30;21.77;;;4.00;1.00;;;;;;5054206;28;20025;-73
2023/01/18 10:38:10;;;;;;;39.95;19.88;;;4.00;1.00;;;;;;5072623;28;20055;-75
2023/01/18 10:40:38;;;;;;;49.15;21.08;;;3.80;1.00;;;;;;5073165;28;20095;-78
2023/01/18 10:43:09;;;;;;;43.00;21.67;;;3.70;1.00;;;;;;5075147;28;20021;-73
2023/01/18 10:45:35;;;;;;;41.22;20.30;;;3.70;10.40;;;;;;5071505;28;20322;-74
2023/01/18 10:48:28;;;;;;;39.67;21.50;;;3.90;18.00;;;;;;5072388;28;20025;-75
2023/01/18 10:50:57;;;;;;;37.55;19.88;;;3.90;7.80;;;;;;5072410;28;20024;-72
2023/01/18 10:53:22;;;;;;;35.22;19.45;;;4.10;3.40;;;;;;5072271;28;20023;-74
2023/01/18 10:56:18;;;;;;;40.15;18.50;;;4.20;1.00;;;;;;5071461;28;20020;-73
2023/01/18 10:58:49;;;;;;;41.03;19.48;;;4.40;1.00;;;;;;5072265;28;20177;-74
2023/01/18 11:01:22;;;;;;;38.80;18.67;;;4.60;1.00;;;;;;5072067;28;20036;-74
2023/01/18 11:04:06;;;;;;;35.90;18.13;;;4.60;1.00;;;;;;5072248;28;20105;-73
2023/01/18 11:06:50;;;;;;;42.75;18.77;;;4.50;1.00;;;;;;5071330;28;20104;-74
2023/01/18 11:09:58;;;;;;;38.33;19.23;;;4.60;1.00;;;;;;5072256;28;20405;-75
2023/01/18 11:12:41;;;;;;;36.63;18.33;;;4.80;1.00;;;;;;5059187;28;20033;-73
2023/01/18 11:15:13;;;;;;;40.33;18.85;;;4.90;1.00;;;;;;5071516;28;20035;-73
2023/01/18 11:17:55;;;;;;;37.72;18.85;;;4.90;1.00;;;;;;5071464;28;20052;-73
2023/01/18 11:20:32;;;;;;;40.28;18.60;;;4.90;1.00;;;;;;5072099;28;20025;-73
2023/01/18 11:23:13;;;;;;;41.30;18.88;;;4.90;1.00;;;;;;5072486;28;20028;-73
2023/01/18 11:25:44;;;;;;;34.60;18.63;;;4.90;1.00;;;;;;5076310;28;20424;-78
2023/01/18 11:28:32;;;;;;;36.70;19.48;;;4.90;1.00;;;;;;5074255;28;20455;-75
2023/01/18 11:31:18;;;;;;;37.90;20.10;;;5.00;1.00;;;;;;5072552;28;20021;-73
2023/01/18 11:33:56;;;;;;;39.00;19.00;;;4.80;1.00;;;;;;5072261;28;20041;-73
2023/01/18 11:36:37;;;;;;;36.03;18.35;;;4.70;1.00;;;;;;5070993;28;20032;-74
2023/01/18 11:39:21;;;;;;;41.03;18.40;;;4.60;1.00;;;;;;5071609;28;20105;-72
2023/01/18 11:41:47;;;;;;;36.40;19.33;;;4.60;1.00;;;;;;5071488;28;20531;-73
2023/01/18 11:44:28;;;;;;;35.95;18.13;;;4.60;1.00;;;;;;5071620;28;20386;-75
2023/01/18 11:46:56;;;;;;;45.60;19.20;;;4.70;1.00;;;;;;5070776;28;20115;-74
2023/01/18 11:49:36;;;;;;;38.80;19.38;;;4.80;1.00;;;;;;5071367;28;20100;-73
2023/01/18 11:52:11;;;;;;;37.78;19.23;;;4.80;1.00;;;;;;5071218;28;20021;-73
2023/01/18 11:54:47;;;;;;;39.25;19.60;;;4.80;1.00;;;;;;5072383;28;20016;-73
2023/01/18 11:57:13;;;;;;;34.30;18.83;;;4.80;1.00;;;;;;5072741;28;20563;-74
2023/01/18 11:59:44;;;;;;;42.35;17.83;;;5.00;1.00;;;;;;5073319;28;20099;-73
2023/01/18 12:02:34;;;;;;;39.20;17.95;;;5.20;1.00;;;;;;5073011;28;20025;-73
2023/01/18 12:05:15;;;;;;;33.58;17.48;;;5.50;1.00;;;;;;5071375;28;20029;-74
2023/01/18 12:07:50;;;;;;;33.03;17.30;;;6.30;1.00;;;;;;5070914;28;20029;-73
2023/01/18 12:10:26;;;;;;;;;;;7.30;1.00;;;;;;5071446;28;20386;-74
2023/01/18 12:13:21;;;;;;;30.65;16.77;;;8.40;1.00;;;;;;5071172;28;19977;-73
2023/01/18 12:15:53;;;;;;;;;;;9.00;1.00;;;;;;5071299;28;20081;-72
2023/01/18 12:18:43;;;;;;;35.40;16.33;;;9.60;1.00;;;;;;5071414;28;19911;-73
2023/01/18 12:21:19;;;;;;;30.70;14.77;;;10.00;1.00;;;;;;5071318;28;20394;-72
2023/01/18 12:24:22;;;;;;;30.60;14.80;;;10.50;1.00;;;;;;5071498;28;20104;-73
2023/01/18 12:27:15;;;;;;;31.58;14.52;;;10.80;87.40;;;;;;5071905;28;20024;-73
2023/01/18 12:29:56;;;;;;;30.75;13.88;;;11.50;99.90;;;;;;5074846;28;20129;-74
2023/01/18 12:33:03;;;;;;;29.25;14.90;;;12.00;1.00;;;;;;5074776;28;20088;-73
2023/01/18 12:36:03;;;;;;;33.90;14.65;;;12.50;1.00;;;;;;5073978;28;20096;-72
2023/01/18 12:38:33;;;;;;;25.52;13.57;;;12.90;99.90;;;;;;5074737;28;20028;-73
2023/01/18 12:41:23;;;;;;;37.05;15.52;;;13.40;99.90;;;;;;5074904;28;20032;-74
2023/01/18 12:44:11;;;;;;;25.08;13.55;;;14.10;1.00;;;;;;5074639;28;20035;-73
2023/01/18 12:46:59;;;;;;;25.15;13.82;;;14.40;1.00;;;;;;5073814;28;20485;-74
2023/01/18 12:49:27;;;;;;;36.75;15.38;;;13.70;1.00;;;;;;5074669;28;20385;-74
2023/01/18 12:51:59;;;;;;;32.92;14.05;;;13.90;1.00;;;;;;5074179;28;20013;-75
2023/01/18 12:54:45;;;;;;;26.00;13.68;;;14.10;1.00;;;;;;5074482;28;20504;-74
2023/01/18 12:57:12;;;;;;;22.33;12.10;;;14.60;99.90;;;;;;5073631;28;20064;-74
2023/01/18 13:00:06;;;;;;;23.23;12.75;;;15.10;99.90;;;;;;5074170;28;20503;-74
2023/01/18 13:02:40;;;;;;;27.70;13.33;;;15.20;99.90;;;;;;5074503;28;20040;-73
2023/01/18 13:05:17;;;;;;;21.95;12.68;;;14.90;99.90;;;;;;5074217;28;20033;-77
2023/01/18 13:07:47;;;;;;;31.85;17.65;;;15.00;99.90;;;;;;5073923;28;20055;-74
2023/01/18 13:10:21;;;;;;;29.98;16.80;;;15.10;99.90;;;;;;5074009;28;20016;-73
2023/01/18 13:12:49;;;;;;;29.25;16.25;;;15.50;99.90;;;;;;5074197;28;20397;-74
2023/01/18 13:15:33;;;;;;;26.30;14.05;;;15.90;99.90;;;;;;5073932;28;20021;-75
2023/01/18 13:18:08;;;;;;;24.43;12.93;;;15.90;99.90;;;;;;5074078;28;20700;-78
2023/01/18 13:21:01;;;;;;;26.85;14.00;;;16.20;99.90;;;;;;5074134;28;20612;-77
2023/01/18 13:23:36;;;;;;;22.15;12.35;;;16.00;99.90;;;;;;5075653;28;20067;-74
2023/01/18 13:26:07;;;;;;;20.02;11.38;;;15.60;62.90;;;;;;5073477;28;20024;-73
2023/01/18 13:28:33;;;;;;;20.58;12.07;;;15.10;92.00;;;;;;5074531;28;20031;-75
2023/01/18 13:31:03;;;;;;;23.67;11.65;;;14.80;99.90;;;;;;5074559;28;20103;-77